Midhurst, United Kingdom
Current Conditions -  °F | °C
As of 12:50 AM on Tuesday 27 Jan 2015 (Local Time) from EGVO Reporting Station
Clear Clear  
Wind Chill: 34°   Ceiling: Unl
Heat Index: 39°   Visibility: 6mi
Dew Point: 32°   Wind: 8mph
Humidity: 75%   Direction: 270°W
Pressure: 30.36"   Gusts: NA
Location:  50.99°N, 0.74°W
Report Text: EGVO 270050Z 27007KT CAVOK 04/M00 Q1028 BLU
Loading
Personal Weather Stations






























Interactive Weather Map New forecast layout! Learn more

10-Day Weather Forecast

Advertisements
Track Severe Weather on mobile